createdAt,value
2023-03-07T00:00:50.434Z,98877.44
2023-03-07T00:03:17.817Z,98878.06
2023-03-07T00:05:44.720Z,98876.41
2023-03-07T00:08:12.225Z,98879.91
2023-03-07T00:10:38.953Z,98880.16
2023-03-07T00:13:05.508Z,98882.91
2023-03-07T00:15:32.100Z,98884.28
2023-03-07T00:17:58.761Z,98877.50
2023-03-07T00:20:25.366Z,98885.12
2023-03-07T00:22:51.921Z,98877.00
2023-03-07T00:25:18.615Z,98884.84
2023-03-07T00:27:45.172Z,98882.16
2023-03-07T00:32:46.997Z,98886.75
2023-03-07T00:35:16.116Z,98889.19
2023-03-07T00:37:42.805Z,98892.44
2023-03-07T00:40:10.282Z,98883.72
2023-03-07T00:42:36.847Z,98889.38
2023-03-07T00:46:03.319Z,98894.53
2023-03-07T00:48:52.336Z,98885.88
2023-03-07T00:51:21.091Z,98895.13
2023-03-07T00:53:48.606Z,98892.69
2023-03-07T00:56:16.727Z,98884.56
2023-03-07T00:58:43.843Z,98881.88
2023-03-07T01:01:12.291Z,98877.28
2023-03-07T01:06:16.379Z,98878.38
2023-03-07T01:08:43.384Z,98886.47
2023-03-07T01:11:10.830Z,98876.72
2023-03-07T01:13:37.839Z,98865.63
2023-03-07T01:16:25.354Z,98866.13
2023-03-07T01:19:25.820Z,98881.34
2023-03-07T01:22:42.316Z,98877.25
2023-03-07T01:25:21.735Z,98870.22
2023-03-07T01:28:21.599Z,98871.84
2023-03-07T01:34:05.532Z,98855.88
2023-03-07T01:36:55.499Z,98853.72
2023-03-07T01:39:23.148Z,98862.09
2023-03-07T01:41:49.743Z,98852.91
2023-03-07T01:44:17.807Z,98851.25
2023-03-07T01:46:55.239Z,98857.75
2023-03-07T01:50:27.762Z,98854.50
2023-03-07T01:53:01.913Z,98853.41
2023-03-07T01:55:32.027Z,98850.37
2023-03-07T01:58:04.406Z,98840.91
2023-03-07T02:00:30.983Z,98839.28
2023-03-07T02:03:10.783Z,98846.81
2023-03-07T02:05:41.184Z,98845.72
2023-03-07T02:10:49.956Z,98838.03
2023-03-07T02:13:16.917Z,98842.87
2023-03-07T02:15:43.644Z,98835.00
2023-03-07T02:18:15.736Z,98843.44
2023-03-07T02:20:42.208Z,98838.28
2023-03-07T02:27:07.914Z,98841.97
2023-03-07T02:29:34.580Z,98831.44
2023-03-07T02:32:01.132Z,98837.38
2023-03-07T02:34:30.845Z,98844.97
2023-03-07T02:37:22.452Z,98837.16
2023-03-07T02:39:49.097Z,98839.06
2023-03-07T02:42:25.546Z,98839.59
2023-03-07T02:45:01.027Z,98839.06
2023-03-07T02:47:27.850Z,98845.28
2023-03-07T02:49:55.120Z,98836.91
2023-03-07T02:52:28.613Z,98842.06
2023-03-07T02:54:55.806Z,98836.63
2023-03-07T02:57:25.041Z,98832.31
2023-03-07T02:59:51.667Z,98838.28
2023-03-07T03:02:23.531Z,98836.91
2023-03-07T03:05:09.856Z,98844.50
2023-03-07T03:07:48.920Z,98839.34
2023-03-07T03:10:16.303Z,98838.53
2023-03-07T03:15:24.808Z,98835.56
2023-03-07T03:17:54.930Z,98830.16
2023-03-07T03:20:21.618Z,98830.41
2023-03-07T03:22:48.223Z,98829.91
2023-03-07T03:25:15.225Z,98830.19
2023-03-07T03:27:42.051Z,98831.25
2023-03-07T03:30:12.429Z,98829.97
2023-03-07T03:32:40.231Z,98840.09
2023-03-07T03:35:07.726Z,98833.03
2023-03-07T03:38:18.602Z,98831.66
2023-03-07T03:41:19.530Z,98830.34
2023-03-07T03:43:46.301Z,98828.41
2023-03-07T03:46:13.094Z,98827.66
2023-03-07T03:48:40.661Z,98816.81
2023-03-07T03:51:16.224Z,98814.84
2023-03-07T03:53:42.803Z,98818.41
2023-03-07T03:56:21.307Z,98820.53
2023-03-07T03:58:53.326Z,98824.31
2023-03-07T04:01:22.495Z,98816.00
2023-03-07T04:03:51.292Z,98824.59
2023-03-07T04:06:21.272Z,98821.34
2023-03-07T04:09:00.544Z,98822.69
2023-03-07T04:11:42.524Z,98817.28
2023-03-07T04:14:09.137Z,98822.69
2023-03-07T04:16:35.789Z,98823.53
2023-03-07T04:19:02.784Z,98824.06
2023-03-07T04:21:29.335Z,98825.13
2023-03-07T04:23:58.311Z,98820.53
2023-03-07T04:29:06.817Z,98833.53
2023-03-07T04:31:33.452Z,98836.81
2023-03-07T04:34:00.078Z,98833.78
2023-03-07T04:36:26.839Z,98839.69
2023-03-07T04:38:53.455Z,98844.00
2023-03-07T04:45:27.603Z,98851.50
2023-03-07T04:47:54.159Z,98854.50
2023-03-07T04:50:20.973Z,98859.97
2023-03-07T04:52:47.577Z,98854.53
2023-03-07T04:55:15.012Z,98865.69
2023-03-07T04:57:42.005Z,98855.09
2023-03-07T05:00:10.215Z,98856.44
2023-03-07T05:02:37.858Z,98860.50
2023-03-07T05:05:05.645Z,98854.81
2023-03-07T05:07:32.848Z,98853.22
2023-03-07T05:09:59.629Z,98853.56
2023-03-07T05:12:26.162Z,98856.25
2023-03-07T05:14:55.256Z,98861.91
2023-03-07T05:17:41.941Z,98859.47
2023-03-07T05:20:14.145Z,98852.13
2023-03-07T05:22:40.773Z,98852.44
2023-03-07T05:25:10.639Z,98850.84
2023-03-07T05:27:37.299Z,98854.09
2023-03-07T05:30:05.842Z,98852.47
2023-03-07T05:32:35.097Z,98861.41
2023-03-07T05:35:12.427Z,98865.72
2023-03-07T05:37:38.974Z,98863.81
2023-03-07T05:40:15.371Z,98864.59
2023-03-07T05:42:41.924Z,98864.06
2023-03-07T05:45:17.589Z,98862.97
2023-03-07T05:48:09.714Z,98864.63
2023-03-07T05:50:46.703Z,98874.06
2023-03-07T05:53:13.329Z,98873.22
2023-03-07T05:55:39.877Z,98879.75
2023-03-07T05:58:06.637Z,98875.91
2023-03-07T06:00:33.250Z,98880.22
2023-03-07T06:03:04.794Z,98873.16
2023-03-07T06:05:31.484Z,98880.41
2023-03-07T06:08:00.131Z,98884.41
2023-03-07T06:10:27.113Z,98883.59
2023-03-07T06:12:54.811Z,98881.44
2023-03-07T06:15:24.613Z,98873.91
2023-03-07T06:17:52.710Z,98887.41
2023-03-07T06:20:20.968Z,98886.91
2023-03-07T06:22:48.872Z,98901.31
2023-03-07T06:25:16.888Z,98890.19
2023-03-07T06:27:43.526Z,98896.44
2023-03-07T06:30:12.343Z,98898.91
2023-03-07T06:32:38.961Z,98894.03
2023-03-07T06:35:06.024Z,98898.91
2023-03-07T06:37:32.619Z,98904.47
2023-03-07T06:39:59.190Z,98900.28
2023-03-07T06:42:25.777Z,98905.81
2023-03-07T06:44:52.314Z,98910.06
2023-03-07T06:47:18.853Z,98911.59
2023-03-07T06:54:56.049Z,98911.09
2023-03-07T06:57:22.665Z,98904.97
2023-03-07T06:59:49.205Z,98911.59
2023-03-07T07:02:15.905Z,98912.81
2023-03-07T07:04:42.523Z,98912.53
2023-03-07T07:07:31.126Z,98912.59
2023-03-07T07:10:19.404Z,98916.22
2023-03-07T07:12:47.424Z,98920.38
2023-03-07T07:15:13.986Z,98912.78
2023-03-07T07:17:40.584Z,98915.94
2023-03-07T07:20:11.278Z,98916.16
2023-03-07T07:22:37.843Z,98916.19
2023-03-07T07:25:04.926Z,98915.50
2023-03-07T07:27:31.620Z,98915.41
2023-03-07T07:29:58.235Z,98918.06
2023-03-07T07:32:24.959Z,98922.09
2023-03-07T07:34:51.681Z,98927.69
2023-03-07T07:37:18.349Z,98930.91
2023-03-07T07:39:45.299Z,98922.75
2023-03-07T07:42:12.534Z,98923.41
2023-03-07T07:44:39.107Z,98922.50
2023-03-07T07:47:05.832Z,98933.53
2023-03-07T07:49:32.468Z,98930.88
2023-03-07T07:51:59.146Z,98930.56
2023-03-07T07:57:22.642Z,98933.13
2023-03-07T07:59:49.837Z,98926.50
2023-03-07T08:02:16.441Z,98937.59
2023-03-07T08:04:43.182Z,98932.22
2023-03-07T08:07:09.810Z,98924.56
2023-03-07T08:12:29.991Z,98925.81
2023-03-07T08:15:24.579Z,98933.34
2023-03-07T08:17:51.421Z,98931.12
2023-03-07T08:20:22.268Z,98932.06
2023-03-07T08:22:50.604Z,98925.91
2023-03-07T08:25:33.714Z,98922.47
2023-03-07T08:28:03.217Z,98927.84
2023-03-07T08:30:32.114Z,98928.19
2023-03-07T08:32:59.238Z,98931.28
2023-03-07T08:35:27.312Z,98935.88
2023-03-07T08:37:55.794Z,98933.59
2023-03-07T08:40:24.860Z,98931.59
2023-03-07T08:42:51.918Z,98935.00
2023-03-07T08:45:18.586Z,98938.94
2023-03-07T08:47:45.432Z,98942.13
2023-03-07T08:50:12.359Z,98934.63
2023-03-07T08:52:38.929Z,98948.94
2023-03-07T08:55:06.033Z,98941.53
2023-03-07T08:57:33.426Z,98939.06
2023-03-07T09:00:08.850Z,98941.13
2023-03-07T09:02:50.581Z,98942.94
2023-03-07T09:05:39.143Z,98948.19
2023-03-07T09:08:07.233Z,98940.38
2023-03-07T09:10:35.345Z,98942.72
2023-03-07T09:13:01.979Z,98950.31
2023-03-07T09:15:28.587Z,98946.59
2023-03-07T09:17:55.222Z,98946.41
2023-03-07T09:20:22.194Z,98951.50
2023-03-07T09:22:48.855Z,98949.47
2023-03-07T09:25:15.469Z,98950.47
2023-03-07T09:27:45.453Z,98945.59
2023-03-07T09:30:13.680Z,98953.66
2023-03-07T09:32:40.563Z,98948.41
2023-03-07T09:35:25.940Z,98938.38
2023-03-07T09:38:16.644Z,98940.59
2023-03-07T09:41:09.735Z,98938.78
2023-03-07T09:43:59.529Z,98937.94
2023-03-07T09:47:11.661Z,98938.19
2023-03-07T09:49:47.196Z,98937.03
2023-03-07T09:52:17.888Z,98938.47
2023-03-07T09:55:01.627Z,98936.50
2023-03-07T09:57:31.662Z,98935.47
2023-03-07T10:00:28.122Z,98935.78
2023-03-07T10:03:04.092Z,98925.78
2023-03-07T10:05:51.052Z,98929.34
2023-03-07T10:09:05.498Z,98934.94
2023-03-07T10:11:50.152Z,98925.78
2023-03-07T10:14:25.222Z,98927.63
2023-03-07T10:16:52.005Z,98935.34
2023-03-07T10:19:58.921Z,98930.94
2023-03-07T10:25:31.631Z,98927.59
2023-03-07T10:28:11.885Z,98933.28
2023-03-07T10:30:38.624Z,98936.59
2023-03-07T10:33:16.187Z,98948.31
2023-03-07T10:35:45.470Z,98938.41
2023-03-07T10:38:18.144Z,98936.44
2023-03-07T10:40:56.807Z,98931.06
2023-03-07T10:43:27.361Z,98932.41
2023-03-07T10:46:23.721Z,98933.69
2023-03-07T10:49:04.092Z,98919.53
2023-03-07T10:51:50.660Z,98923.84
2023-03-07T10:54:20.906Z,98919.78
2023-03-07T10:57:07.498Z,98916.59
2023-03-07T10:59:35.233Z,98904.66
2023-03-07T11:02:05.913Z,98901.06
2023-03-07T11:04:45.706Z,98905.16
2023-03-07T11:07:32.811Z,98900.69
2023-03-07T11:10:01.865Z,98897.00
2023-03-07T11:12:31.924Z,98903.56
2023-03-07T11:15:12.204Z,98902.91
2023-03-07T11:17:45.110Z,98896.53
2023-03-07T11:20:25.654Z,98892.69
2023-03-07T11:23:30.855Z,98888.00
2023-03-07T11:26:18.738Z,98881.16
2023-03-07T11:28:45.320Z,98877.81
2023-03-07T11:31:26.353Z,98864.09
2023-03-07T11:34:17.638Z,98857.91
2023-03-07T11:36:48.738Z,98857.75
2023-03-07T11:39:18.035Z,98847.72
2023-03-07T11:41:54.886Z,98860.47
2023-03-07T11:44:44.296Z,98857.72
2023-03-07T11:48:03.097Z,98852.28
2023-03-07T11:50:32.411Z,98843.16
2023-03-07T11:53:01.784Z,98850.72
2023-03-07T11:55:47.128Z,98854.06
2023-03-07T11:58:52.789Z,98844.03
2023-03-07T12:01:40.814Z,98848.25
2023-03-07T12:04:34.806Z,98838.75
2023-03-07T12:07:19.479Z,98848.03
2023-03-07T12:10:20.137Z,98842.37
2023-03-07T12:12:56.686Z,98840.16
2023-03-07T12:16:11.678Z,98834.72
2023-03-07T12:19:04.468Z,98830.44
2023-03-07T12:24:57.557Z,98821.28
2023-03-07T12:27:32.569Z,98822.38
2023-03-07T12:30:04.870Z,98822.31
2023-03-07T12:32:35.772Z,98827.66
2023-03-07T12:35:25.673Z,98820.84
2023-03-07T12:37:52.166Z,98825.22
2023-03-07T12:40:23.432Z,98818.63
2023-03-07T12:43:10.540Z,98823.28
2023-03-07T12:45:51.201Z,98815.47
2023-03-07T12:48:56.949Z,98818.13
2023-03-07T12:51:36.945Z,98807.03
2023-03-07T12:54:06.237Z,98820.66
2023-03-07T12:56:43.929Z,98822.28
2023-03-07T12:59:16.017Z,98826.22
2023-03-07T13:02:08.908Z,98815.12
2023-03-07T13:04:38.398Z,98822.28
2023-03-07T13:07:37.299Z,98826.50
2023-03-07T13:10:06.903Z,98815.12
2023-03-07T13:12:35.772Z,98807.47
2023-03-07T13:15:17.477Z,98808.97
2023-03-07T13:17:43.968Z,98822.03
2023-03-07T13:20:19.307Z,98825.53
2023-03-07T13:22:45.876Z,98824.69
2023-03-07T13:25:56.345Z,98821.72
2023-03-07T13:29:00.233Z,98803.81
2023-03-07T13:31:37.240Z,98812.87
2023-03-07T13:34:54.798Z,98824.53
2023-03-07T13:37:50.148Z,98823.94
2023-03-07T13:40:48.948Z,98815.25
2023-03-07T13:43:27.470Z,98812.81
2023-03-07T13:45:58.986Z,98815.25
2023-03-07T13:48:31.347Z,98819.44
2023-03-07T13:51:06.666Z,98813.13
2023-03-07T13:53:48.489Z,98815.19
2023-03-07T13:56:19.992Z,98809.03
2023-03-07T13:58:48.749Z,98805.00
2023-03-07T14:02:03.914Z,98799.22
2023-03-07T14:04:41.054Z,98792.81
2023-03-07T14:07:28.088Z,98789.06
2023-03-07T14:10:09.901Z,98773.56
2023-03-07T14:13:11.919Z,98779.13
2023-03-07T14:15:45.024Z,98777.94
2023-03-07T14:18:29.584Z,98765.38
2023-03-07T14:21:17.856Z,98766.22
2023-03-07T14:24:05.900Z,98760.16
2023-03-07T14:26:37.660Z,98753.22
2023-03-07T14:29:23.854Z,98742.87
2023-03-07T14:31:57.190Z,98755.19
2023-03-07T14:34:30.888Z,98748.22
2023-03-07T14:37:05.476Z,98743.53
2023-03-07T14:39:48.414Z,98746.97
2023-03-07T14:42:20.875Z,98748.38
2023-03-07T14:44:58.702Z,98754.69
2023-03-07T14:47:30.150Z,98754.06
2023-03-07T14:50:15.874Z,98756.41
2023-03-07T14:52:43.386Z,98745.19
2023-03-07T14:55:19.919Z,98745.88
2023-03-07T14:57:52.606Z,98746.16
2023-03-07T15:00:25.356Z,98748.88
2023-03-07T15:02:55.588Z,98749.31
2023-03-07T15:05:28.138Z,98749.84
2023-03-07T15:07:55.086Z,98743.59
2023-03-07T15:10:40.718Z,98746.75
2023-03-07T15:13:42.351Z,98740.12
2023-03-07T15:16:16.021Z,98741.66
2023-03-07T15:18:49.801Z,98745.03
2023-03-07T15:21:20.030Z,98742.25
2023-03-07T15:23:56.313Z,98746.25
2023-03-07T15:26:26.343Z,98739.91
2023-03-07T15:29:09.034Z,98731.00
2023-03-07T15:31:53.582Z,98732.38
2023-03-07T15:34:40.434Z,98739.34
2023-03-07T15:37:26.948Z,98726.03
2023-03-07T15:40:01.381Z,98724.91
2023-03-07T15:42:29.019Z,98717.28
2023-03-07T15:45:00.975Z,98719.63
2023-03-07T15:47:29.999Z,98710.78
2023-03-07T15:49:58.820Z,98699.03
2023-03-07T15:52:37.634Z,98695.34
2023-03-07T15:55:16.200Z,98701.84
2023-03-07T15:57:52.600Z,98703.56
2023-03-07T16:00:26.751Z,98693.28
2023-03-07T16:02:53.421Z,98698.37
2023-03-07T16:05:20.791Z,98692.84
2023-03-07T16:07:49.205Z,98692.44
2023-03-07T16:10:16.085Z,98687.19
2023-03-07T16:12:46.602Z,98693.91
2023-03-07T16:15:17.760Z,98690.25
2023-03-07T16:17:45.012Z,98689.47
2023-03-07T16:20:17.163Z,98692.00
2023-03-07T16:22:44.482Z,98675.06
2023-03-07T16:25:15.650Z,98676.88
2023-03-07T16:27:51.645Z,98665.53
2023-03-07T16:30:25.050Z,98661.25
2023-03-07T16:32:52.341Z,98651.75
2023-03-07T16:35:24.485Z,98662.59
2023-03-07T16:37:51.546Z,98668.13
2023-03-07T16:40:18.327Z,98658.87
2023-03-07T16:42:46.848Z,98659.87
2023-03-07T16:45:23.789Z,98658.00
2023-03-07T16:47:58.653Z,98652.00
2023-03-07T16:50:33.379Z,98653.97
2023-03-07T16:53:00.428Z,98651.91
2023-03-07T16:55:27.117Z,98655.00
2023-03-07T16:58:03.100Z,98658.47
2023-03-07T17:00:29.914Z,98654.34
2023-03-07T17:02:59.923Z,98658.66
2023-03-07T17:05:28.696Z,98659.31
2023-03-07T17:07:57.293Z,98653.31
2023-03-07T17:10:26.511Z,98656.50
2023-03-07T17:12:55.085Z,98656.72
2023-03-07T17:15:30.295Z,98657.75
2023-03-07T17:17:58.025Z,98659.00
2023-03-07T17:20:24.856Z,98650.16
2023-03-07T17:22:52.319Z,98665.22
2023-03-07T17:25:21.519Z,98661.28
2023-03-07T17:28:08.453Z,98655.38
2023-03-07T17:30:35.113Z,98652.75
2023-03-07T17:33:01.809Z,98655.47
2023-03-07T17:35:28.642Z,98649.16
2023-03-07T17:37:55.716Z,98647.25
2023-03-07T17:40:22.745Z,98646.88
2023-03-07T17:42:51.130Z,98644.00
2023-03-07T17:45:18.448Z,98641.69
2023-03-07T17:47:45.035Z,98641.31
2023-03-07T17:50:12.263Z,98644.19
2023-03-07T17:52:38.845Z,98639.97
2023-03-07T17:55:09.571Z,98650.31
2023-03-07T17:57:36.771Z,98644.28
2023-03-07T18:00:08.735Z,98635.34
2023-03-07T18:02:35.363Z,98642.59
2023-03-07T18:05:01.996Z,98641.28
2023-03-07T18:07:28.609Z,98627.25
2023-03-07T18:10:07.154Z,98636.59
2023-03-07T18:12:39.238Z,98633.38
2023-03-07T18:15:08.343Z,98642.47
2023-03-07T18:17:46.948Z,98628.97
2023-03-07T18:20:15.227Z,98614.75
2023-03-07T18:22:42.864Z,98624.19
2023-03-07T18:25:12.869Z,98617.25
2023-03-07T18:27:39.504Z,98607.69
2023-03-07T18:30:06.632Z,98608.91
2023-03-07T18:32:34.283Z,98623.88
2023-03-07T18:35:01.103Z,98619.84
2023-03-07T18:37:39.546Z,98622.50
2023-03-07T18:40:06.996Z,98626.16
2023-03-07T18:42:34.302Z,98624.38
2023-03-07T18:45:00.879Z,98631.72
2023-03-07T18:47:27.468Z,98621.87
2023-03-07T18:49:54.079Z,98622.91
2023-03-07T18:52:20.700Z,98623.22
2023-03-07T18:54:48.534Z,98618.59
2023-03-07T18:57:15.275Z,98632.81
2023-03-07T18:59:41.857Z,98628.09
2023-03-07T19:02:10.147Z,98626.19
2023-03-07T19:04:36.796Z,98616.84
2023-03-07T19:07:04.102Z,98613.63
2023-03-07T19:09:31.652Z,98609.53
2023-03-07T19:11:58.288Z,98606.19
2023-03-07T19:14:26.382Z,98607.91
2023-03-07T19:16:53.168Z,98606.19
2023-03-07T19:19:19.787Z,98602.78
2023-03-07T19:21:46.345Z,98600.56
2023-03-07T19:24:13.067Z,98598.16
2023-03-07T19:26:40.944Z,98605.34
2023-03-07T19:29:09.710Z,98591.16
2023-03-07T19:31:36.442Z,98597.53
2023-03-07T19:34:05.102Z,98588.59
2023-03-07T19:36:35.235Z,98588.53
2023-03-07T19:39:02.255Z,98586.69
2023-03-07T19:41:31.437Z,98588.22
2023-03-07T19:43:59.713Z,98588.16
2023-03-07T19:46:26.922Z,98585.72
2023-03-07T19:48:54.023Z,98587.56
2023-03-07T19:51:23.362Z,98590.47
2023-03-07T19:53:51.231Z,98586.94
2023-03-07T19:56:22.260Z,98589.84
2023-03-07T19:58:49.178Z,98581.63
2023-03-07T20:01:21.544Z,98596.22
2023-03-07T20:03:49.013Z,98583.72
2023-03-07T20:06:20.005Z,98586.06
2023-03-07T20:08:51.463Z,98585.06
2023-03-07T20:11:20.554Z,98581.72
2023-03-07T20:13:50.663Z,98585.59
2023-03-07T20:16:20.377Z,98583.72
2023-03-07T20:18:51.646Z,98583.94
2023-03-07T20:21:19.941Z,98586.31
2023-03-07T20:23:48.395Z,98584.78
2023-03-07T20:26:24.791Z,98586.03
2023-03-07T20:28:52.762Z,98587.62
2023-03-07T20:31:20.334Z,98586.59
2023-03-07T20:33:47.117Z,98579.00
2023-03-07T20:36:19.503Z,98571.13
2023-03-07T20:38:51.057Z,98570.34
2023-03-07T20:41:20.982Z,98569.78
2023-03-07T20:43:48.342Z,98574.09
2023-03-07T20:46:16.892Z,98572.69
2023-03-07T20:48:44.186Z,98574.03
2023-03-07T20:51:23.347Z,98578.91
2023-03-07T20:54:06.613Z,98573.84
2023-03-07T20:56:34.431Z,98571.94
2023-03-07T20:59:16.793Z,98576.78
2023-03-07T21:01:56.973Z,98564.88
2023-03-07T21:04:27.128Z,98551.44
2023-03-07T21:06:53.782Z,98560.91
2023-03-07T21:09:20.544Z,98568.31
2023-03-07T21:12:00.757Z,98571.56
2023-03-07T21:14:27.613Z,98577.50
2023-03-07T21:16:54.171Z,98581.13
2023-03-07T21:19:23.415Z,98578.22
2023-03-07T21:21:49.976Z,98576.91
2023-03-07T21:24:16.614Z,98578.00
2023-03-07T21:26:43.375Z,98583.44
2023-03-07T21:29:10.885Z,98588.69
2023-03-07T21:31:38.805Z,98580.12
2023-03-07T21:36:56.348Z,98578.09
2023-03-07T21:39:24.203Z,98576.19
2023-03-07T21:41:51.263Z,98567.81
2023-03-07T21:44:18.004Z,98558.59
2023-03-07T21:46:45.264Z,98560.56
2023-03-07T21:49:36.629Z,98548.56
2023-03-07T21:52:21.522Z,98551.81
2023-03-07T21:54:48.114Z,98548.28
2023-03-07T21:57:14.694Z,98534.88
2023-03-07T21:59:41.508Z,98550.12
2023-03-07T22:02:10.562Z,98533.66
2023-03-07T22:04:37.248Z,98536.69
2023-03-07T22:10:07.325Z,98528.38
2023-03-07T22:15:29.326Z,98532.16
2023-03-07T22:20:31.841Z,98536.13
2023-03-07T22:24:18.111Z,98531.53
2023-03-07T22:27:05.977Z,98539.38
2023-03-07T22:29:33.067Z,98537.44
2023-03-07T22:32:01.566Z,98539.00
2023-03-07T22:34:29.380Z,98526.12
2023-03-07T22:36:57.470Z,98521.16
2023-03-07T22:39:39.435Z,98518.06
2023-03-07T22:42:06.197Z,98518.56
2023-03-07T22:44:32.796Z,98519.81
2023-03-07T22:46:59.735Z,98519.47
2023-03-07T22:49:30.387Z,98512.06
2023-03-07T22:51:57.196Z,98517.91
2023-03-07T22:54:23.911Z,98523.44
2023-03-07T22:56:50.445Z,98522.31
2023-03-07T22:59:17.023Z,98520.16
2023-03-07T23:01:43.651Z,98518.66
2023-03-07T23:04:25.754Z,98521.16
2023-03-07T23:07:27.346Z,98520.56
2023-03-07T23:09:53.919Z,98513.00
2023-03-07T23:12:38.723Z,98514.44
2023-03-07T23:15:05.722Z,98517.25
2023-03-07T23:17:32.353Z,98507.16
2023-03-07T23:19:58.963Z,98500.81
2023-03-07T23:22:43.795Z,98505.16
2023-03-07T23:25:11.279Z,98513.97
2023-03-07T23:27:37.952Z,98514.59
2023-03-07T23:30:06.351Z,98515.03
2023-03-07T23:32:45.876Z,98509.84
2023-03-07T23:38:12.112Z,98519.25
2023-03-07T23:40:39.188Z,98526.31
2023-03-07T23:43:06.441Z,98523.16
2023-03-07T23:45:33.233Z,98526.09
2023-03-07T23:47:59.790Z,98525.34
2023-03-07T23:50:26.337Z,98525.41
2023-03-07T23:52:58.241Z,98530.19
2023-03-07T23:55:24.881Z,98533.44
2023-03-07T23:57:51.598Z,98536.16
